Terminal Aerodrome Forecast
Issued by NWS

Current Version | Previous Version | Text Only | Print | Product List | Glossary Off
Versions: 1 2 3 4 5 6 7 8 9 10 11 12 13 14 15 16 17

246
FTUS41 KPBZ 251725
TAFMGW
TAF
KMGW 251725Z 2518/2618 25010G15KT P6SM SCT025 BKN040
     FM260700 27011G20KT P6SM BKN030
     FM261100 26010KT P6SM BKN050=

USA.gov is the U.S. government's official web portal to all federal, state and local government web resources and services.